sensor_id;sensor_type;location;lat;lon;timestamp;temperature;humidity
29237;DHT22;16266;50.866;4.398;2023-11-19T00:01:32;14.10;99.90
29237;DHT22;16266;50.866;4.398;2023-11-19T00:03:58;14.10;99.90
29237;DHT22;16266;50.866;4.398;2023-11-19T00:06:24;14.10;99.90
29237;DHT22;16266;50.866;4.398;2023-11-19T00:08:51;14.10;99.90
29237;DHT22;16266;50.866;4.398;2023-11-19T00:11:17;14.10;99.90
29237;DHT22;16266;50.866;4.398;2023-11-19T00:13:42;14.10;99.90
29237;DHT22;16266;50.866;4.398;2023-11-19T00:16:08;14.10;99.90
29237;DHT22;16266;50.866;4.398;2023-11-19T00:18:35;14.10;99.90
29237;DHT22;16266;50.866;4.398;2023-11-19T00:21:02;14.00;99.90
29237;DHT22;16266;50.866;4.398;2023-11-19T00:23:28;14.10;99.90
29237;DHT22;16266;50.866;4.398;2023-11-19T00:25:53;14.10;99.90
29237;DHT22;16266;50.866;4.398;2023-11-19T00:28:19;14.10;99.90
29237;DHT22;16266;50.866;4.398;2023-11-19T00:30:44;14.10;99.90
29237;DHT22;16266;50.866;4.398;2023-11-19T00:33:10;14.10;99.90
29237;DHT22;16266;50.866;4.398;2023-11-19T00:35:36;14.00;99.90
29237;DHT22;16266;50.866;4.398;2023-11-19T00:38:01;14.00;99.90
29237;DHT22;16266;50.866;4.398;2023-11-19T00:40:28;14.10;99.90
29237;DHT22;16266;50.866;4.398;2023-11-19T00:42:54;14.10;99.90
29237;DHT22;16266;50.866;4.398;2023-11-19T00:45:19;14.10;99.90
29237;DHT22;16266;50.866;4.398;2023-11-19T00:47:45;14.00;99.90
29237;DHT22;16266;50.866;4.398;2023-11-19T00:50:11;14.10;99.90
29237;DHT22;16266;50.866;4.398;2023-11-19T00:52:37;13.90;99.90
29237;DHT22;16266;50.866;4.398;2023-11-19T00:55:04;13.90;99.90
29237;DHT22;16266;50.866;4.398;2023-11-19T00:57:30;13.90;99.90
29237;DHT22;16266;50.866;4.398;2023-11-19T00:59:59;13.90;99.90
29237;DHT22;16266;50.866;4.398;2023-11-19T01:02:24;14.00;99.90
29237;DHT22;16266;50.866;4.398;2023-11-19T01:04:50;14.00;99.90
29237;DHT22;16266;50.866;4.398;2023-11-19T01:07:16;14.00;99.90
29237;DHT22;16266;50.866;4.398;2023-11-19T01:09:42;14.00;99.90
29237;DHT22;16266;50.866;4.398;2023-11-19T01:12:08;14.10;99.90
29237;DHT22;16266;50.866;4.398;2023-11-19T01:14:35;14.00;99.90
29237;DHT22;16266;50.866;4.398;2023-11-19T01:17:01;14.00;99.90
29237;DHT22;16266;50.866;4.398;2023-11-19T01:19:27;14.00;99.90
29237;DHT22;16266;50.866;4.398;2023-11-19T01:21:54;14.10;99.90
29237;DHT22;16266;50.866;4.398;2023-11-19T01:24:19;14.00;99.90
29237;DHT22;16266;50.866;4.398;2023-11-19T01:26:45;14.00;99.90
29237;DHT22;16266;50.866;4.398;2023-11-19T01:29:15;14.10;99.90
29237;DHT22;16266;50.866;4.398;2023-11-19T01:31:45;14.10;99.90
29237;DHT22;16266;50.866;4.398;2023-11-19T01:34:12;14.10;99.90
29237;DHT22;16266;50.866;4.398;2023-11-19T01:36:38;14.10;99.90
29237;DHT22;16266;50.866;4.398;2023-11-19T01:39:04;14.00;99.90
29237;DHT22;16266;50.866;4.398;2023-11-19T01:41:37;14.10;99.90
29237;DHT22;16266;50.866;4.398;2023-11-19T01:44:05;14.00;99.90
29237;DHT22;16266;50.866;4.398;2023-11-19T01:46:31;14.00;99.90
29237;DHT22;16266;50.866;4.398;2023-11-19T01:48:58;13.90;99.90
29237;DHT22;16266;50.866;4.398;2023-11-19T01:51:24;13.80;99.90
29237;DHT22;16266;50.866;4.398;2023-11-19T01:53:50;13.80;99.90
29237;DHT22;16266;50.866;4.398;2023-11-19T01:56:16;13.80;99.90
29237;DHT22;16266;50.866;4.398;2023-11-19T01:58:46;13.80;99.90
29237;DHT22;16266;50.866;4.398;2023-11-19T02:01:13;13.80;99.90
29237;DHT22;16266;50.866;4.398;2023-11-19T02:03:39;13.80;99.90
29237;DHT22;16266;50.866;4.398;2023-11-19T02:06:05;13.80;99.90
29237;DHT22;16266;50.866;4.398;2023-11-19T02:08:31;13.70;99.90
29237;DHT22;16266;50.866;4.398;2023-11-19T02:10:56;13.60;99.90
29237;DHT22;16266;50.866;4.398;2023-11-19T02:13:22;13.50;99.90
29237;DHT22;16266;50.866;4.398;2023-11-19T02:15:48;13.40;99.90
29237;DHT22;16266;50.866;4.398;2023-11-19T02:18:22;13.30;99.90
29237;DHT22;16266;50.866;4.398;2023-11-19T02:20:51;13.20;99.90
29237;DHT22;16266;50.866;4.398;2023-11-19T02:23:18;13.20;99.90
29237;DHT22;16266;50.866;4.398;2023-11-19T02:26:02;13.30;99.90
29237;DHT22;16266;50.866;4.398;2023-11-19T02:28:28;13.20;99.90
29237;DHT22;16266;50.866;4.398;2023-11-19T02:30:54;13.20;99.90
29237;DHT22;16266;50.866;4.398;2023-11-19T02:33:19;13.30;99.90
29237;DHT22;16266;50.866;4.398;2023-11-19T02:35:45;13.30;99.90
29237;DHT22;16266;50.866;4.398;2023-11-19T02:38:11;13.30;99.90
29237;DHT22;16266;50.866;4.398;2023-11-19T02:40:39;13.30;99.90
29237;DHT22;16266;50.866;4.398;2023-11-19T02:43:04;13.40;99.90
29237;DHT22;16266;50.866;4.398;2023-11-19T02:45:30;13.30;99.90
29237;DHT22;16266;50.866;4.398;2023-11-19T02:47:56;13.40;99.90
29237;DHT22;16266;50.866;4.398;2023-11-19T02:50:22;13.40;99.90
29237;DHT22;16266;50.866;4.398;2023-11-19T02:52:52;13.30;99.90
29237;DHT22;16266;50.866;4.398;2023-11-19T02:55:19;13.20;99.90
29237;DHT22;16266;50.866;4.398;2023-11-19T02:57:45;13.20;99.90
29237;DHT22;16266;50.866;4.398;2023-11-19T03:00:18;13.20;99.90
29237;DHT22;16266;50.866;4.398;2023-11-19T03:02:44;13.20;99.90
29237;DHT22;16266;50.866;4.398;2023-11-19T03:05:14;13.30;99.90
29237;DHT22;16266;50.866;4.398;2023-11-19T03:07:42;13.30;99.90
29237;DHT22;16266;50.866;4.398;2023-11-19T03:10:12;13.20;99.90
29237;DHT22;16266;50.866;4.398;2023-11-19T03:12:41;13.10;99.90
29237;DHT22;16266;50.866;4.398;2023-11-19T03:15:07;12.90;99.90
29237;DHT22;16266;50.866;4.398;2023-11-19T03:17:38;12.80;99.90
29237;DHT22;16266;50.866;4.398;2023-11-19T03:20:06;12.70;99.90
29237;DHT22;16266;50.866;4.398;2023-11-19T03:22:32;12.60;99.90
29237;DHT22;16266;50.866;4.398;2023-11-19T03:24:59;12.60;99.90
29237;DHT22;16266;50.866;4.398;2023-11-19T03:27:25;12.60;99.90
29237;DHT22;16266;50.866;4.398;2023-11-19T03:29:51;12.50;99.90
29237;DHT22;16266;50.866;4.398;2023-11-19T03:32:16;12.50;99.90
29237;DHT22;16266;50.866;4.398;2023-11-19T03:34:43;12.40;99.90
29237;DHT22;16266;50.866;4.398;2023-11-19T03:37:08;12.40;99.90
29237;DHT22;16266;50.866;4.398;2023-11-19T03:39:34;12.40;99.90
29237;DHT22;16266;50.866;4.398;2023-11-19T03:41:59;12.30;99.90
29237;DHT22;16266;50.866;4.398;2023-11-19T03:44:26;12.30;99.90
29237;DHT22;16266;50.866;4.398;2023-11-19T03:46:52;12.20;99.90
29237;DHT22;16266;50.866;4.398;2023-11-19T03:49:18;12.20;99.90
29237;DHT22;16266;50.866;4.398;2023-11-19T03:51:43;12.20;99.90
29237;DHT22;16266;50.866;4.398;2023-11-19T03:54:09;12.10;99.90
29237;DHT22;16266;50.866;4.398;2023-11-19T03:56:34;12.10;99.90
29237;DHT22;16266;50.866;4.398;2023-11-19T03:59:00;12.10;99.90
29237;DHT22;16266;50.866;4.398;2023-11-19T04:01:26;12.00;99.90
29237;DHT22;16266;50.866;4.398;2023-11-19T04:03:51;12.00;99.90
29237;DHT22;16266;50.866;4.398;2023-11-19T04:06:17;12.00;99.90
29237;DHT22;16266;50.866;4.398;2023-11-19T04:08:43;12.10;99.90
29237;DHT22;16266;50.866;4.398;2023-11-19T04:11:08;12.10;99.90
29237;DHT22;16266;50.866;4.398;2023-11-19T04:13:34;12.20;99.90
29237;DHT22;16266;50.866;4.398;2023-11-19T04:16:00;12.30;99.90
29237;DHT22;16266;50.866;4.398;2023-11-19T04:18:26;12.30;99.90
29237;DHT22;16266;50.866;4.398;2023-11-19T04:20:52;12.30;99.90
29237;DHT22;16266;50.866;4.398;2023-11-19T04:23:18;12.20;99.90
29237;DHT22;16266;50.866;4.398;2023-11-19T04:25:43;12.20;99.90
29237;DHT22;16266;50.866;4.398;2023-11-19T04:28:09;12.20;99.90
29237;DHT22;16266;50.866;4.398;2023-11-19T04:30:35;12.20;99.90
29237;DHT22;16266;50.866;4.398;2023-11-19T04:33:01;12.20;99.90
29237;DHT22;16266;50.866;4.398;2023-11-19T04:35:26;12.10;99.90
29237;DHT22;16266;50.866;4.398;2023-11-19T04:37:52;12.10;99.90
29237;DHT22;16266;50.866;4.398;2023-11-19T04:40:17;12.10;99.90
29237;DHT22;16266;50.866;4.398;2023-11-19T04:42:48;12.10;99.90
29237;DHT22;16266;50.866;4.398;2023-11-19T04:45:13;12.00;99.90
29237;DHT22;16266;50.866;4.398;2023-11-19T04:47:39;11.90;99.90
29237;DHT22;16266;50.866;4.398;2023-11-19T04:50:05;11.90;99.90
29237;DHT22;16266;50.866;4.398;2023-11-19T04:52:31;11.90;99.90
29237;DHT22;16266;50.866;4.398;2023-11-19T04:54:56;11.90;99.90
29237;DHT22;16266;50.866;4.398;2023-11-19T04:57:22;11.80;99.90
29237;DHT22;16266;50.866;4.398;2023-11-19T04:59:47;11.80;99.90
29237;DHT22;16266;50.866;4.398;2023-11-19T05:02:13;11.80;99.90
29237;DHT22;16266;50.866;4.398;2023-11-19T05:04:43;11.80;99.90
29237;DHT22;16266;50.866;4.398;2023-11-19T05:07:09;11.80;99.90
29237;DHT22;16266;50.866;4.398;2023-11-19T05:09:35;11.80;99.90
29237;DHT22;16266;50.866;4.398;2023-11-19T05:12:02;11.80;99.90
29237;DHT22;16266;50.866;4.398;2023-11-19T05:14:28;11.70;99.90
29237;DHT22;16266;50.866;4.398;2023-11-19T05:16:53;11.70;99.90
29237;DHT22;16266;50.866;4.398;2023-11-19T05:19:19;11.60;99.90
29237;DHT22;16266;50.866;4.398;2023-11-19T05:21:44;11.60;99.90
29237;DHT22;16266;50.866;4.398;2023-11-19T05:24:10;11.60;99.90
29237;DHT22;16266;50.866;4.398;2023-11-19T05:26:37;11.60;99.90
29237;DHT22;16266;50.866;4.398;2023-11-19T05:29:03;11.60;99.90
29237;DHT22;16266;50.866;4.398;2023-11-19T05:31:30;11.60;99.90
29237;DHT22;16266;50.866;4.398;2023-11-19T05:33:55;11.50;99.90
29237;DHT22;16266;50.866;4.398;2023-11-19T05:36:21;11.60;99.90
29237;DHT22;16266;50.866;4.398;2023-11-19T05:38:46;11.50;99.90
29237;DHT22;16266;50.866;4.398;2023-11-19T05:41:12;11.60;99.90
29237;DHT22;16266;50.866;4.398;2023-11-19T05:43:38;11.70;99.90
29237;DHT22;16266;50.866;4.398;2023-11-19T05:46:06;11.70;99.90
29237;DHT22;16266;50.866;4.398;2023-11-19T05:48:32;11.70;99.90
29237;DHT22;16266;50.866;4.398;2023-11-19T05:50:58;11.80;99.90
29237;DHT22;16266;50.866;4.398;2023-11-19T05:53:24;11.80;99.90
29237;DHT22;16266;50.866;4.398;2023-11-19T05:55:50;11.80;99.90
29237;DHT22;16266;50.866;4.398;2023-11-19T05:58:25;11.60;99.90
29237;DHT22;16266;50.866;4.398;2023-11-19T06:00:57;11.60;99.90
29237;DHT22;16266;50.866;4.398;2023-11-19T06:03:25;11.40;99.90
29237;DHT22;16266;50.866;4.398;2023-11-19T06:05:52;11.40;99.90
29237;DHT22;16266;50.866;4.398;2023-11-19T06:08:17;11.30;99.90
29237;DHT22;16266;50.866;4.398;2023-11-19T06:10:45;11.20;99.90
29237;DHT22;16266;50.866;4.398;2023-11-19T06:13:16;11.20;99.90
29237;DHT22;16266;50.866;4.398;2023-11-19T06:15:44;11.30;99.90
29237;DHT22;16266;50.866;4.398;2023-11-19T06:18:10;11.20;99.90
29237;DHT22;16266;50.866;4.398;2023-11-19T06:20:37;11.20;99.90
29237;DHT22;16266;50.866;4.398;2023-11-19T06:23:03;11.20;99.90
29237;DHT22;16266;50.866;4.398;2023-11-19T06:25:29;11.20;99.90
29237;DHT22;16266;50.866;4.398;2023-11-19T06:27:54;11.10;99.90
29237;DHT22;16266;50.866;4.398;2023-11-19T06:30:20;11.10;99.90
29237;DHT22;16266;50.866;4.398;2023-11-19T06:32:46;11.10;99.90
29237;DHT22;16266;50.866;4.398;2023-11-19T06:35:12;11.10;99.90
29237;DHT22;16266;50.866;4.398;2023-11-19T06:37:39;11.10;99.90
29237;DHT22;16266;50.866;4.398;2023-11-19T06:40:06;11.10;99.90
29237;DHT22;16266;50.866;4.398;2023-11-19T06:42:32;11.00;99.90
29237;DHT22;16266;50.866;4.398;2023-11-19T06:44:58;11.00;99.90
29237;DHT22;16266;50.866;4.398;2023-11-19T06:47:27;11.00;99.90
29237;DHT22;16266;50.866;4.398;2023-11-19T06:49:54;11.00;99.90
29237;DHT22;16266;50.866;4.398;2023-11-19T06:52:20;11.00;99.90
29237;DHT22;16266;50.866;4.398;2023-11-19T06:54:45;11.00;99.90
29237;DHT22;16266;50.866;4.398;2023-11-19T06:57:11;11.00;99.90
29237;DHT22;16266;50.866;4.398;2023-11-19T06:59:38;11.00;99.90
29237;DHT22;16266;50.866;4.398;2023-11-19T07:02:03;11.00;99.90
29237;DHT22;16266;50.866;4.398;2023-11-19T07:04:30;11.00;99.90
29237;DHT22;16266;50.866;4.398;2023-11-19T07:06:56;11.00;99.90
29237;DHT22;16266;50.866;4.398;2023-11-19T07:09:21;11.00;99.90
29237;DHT22;16266;50.866;4.398;2023-11-19T07:11:48;11.10;99.90
29237;DHT22;16266;50.866;4.398;2023-11-19T07:14:15;11.10;99.90
29237;DHT22;16266;50.866;4.398;2023-11-19T07:16:41;11.20;99.90
29237;DHT22;16266;50.866;4.398;2023-11-19T07:19:08;11.10;99.90
29237;DHT22;16266;50.866;4.398;2023-11-19T07:21:34;11.20;99.90
29237;DHT22;16266;50.866;4.398;2023-11-19T07:23:59;11.30;99.90
29237;DHT22;16266;50.866;4.398;2023-11-19T07:26:25;11.30;99.90
29237;DHT22;16266;50.866;4.398;2023-11-19T07:28:51;11.30;99.90
29237;DHT22;16266;50.866;4.398;2023-11-19T07:31:17;11.30;99.90
29237;DHT22;16266;50.866;4.398;2023-11-19T07:33:46;11.30;99.90
29237;DHT22;16266;50.866;4.398;2023-11-19T07:36:12;11.30;99.90
29237;DHT22;16266;50.866;4.398;2023-11-19T07:38:38;11.40;99.90
29237;DHT22;16266;50.866;4.398;2023-11-19T07:41:07;11.40;99.90
29237;DHT22;16266;50.866;4.398;2023-11-19T07:43:35;11.50;99.90
29237;DHT22;16266;50.866;4.398;2023-11-19T07:46:01;11.50;99.90
29237;DHT22;16266;50.866;4.398;2023-11-19T07:48:27;11.60;99.90
29237;DHT22;16266;50.866;4.398;2023-11-19T07:50:53;11.60;99.90
29237;DHT22;16266;50.866;4.398;2023-11-19T07:53:19;11.60;99.90
29237;DHT22;16266;50.866;4.398;2023-11-19T07:55:45;11.70;99.90
29237;DHT22;16266;50.866;4.398;2023-11-19T07:58:12;11.70;99.90
29237;DHT22;16266;50.866;4.398;2023-11-19T08:00:38;11.90;99.90
29237;DHT22;16266;50.866;4.398;2023-11-19T08:03:04;11.90;99.90
29237;DHT22;16266;50.866;4.398;2023-11-19T08:05:30;11.90;99.90
29237;DHT22;16266;50.866;4.398;2023-11-19T08:07:56;11.80;99.90
29237;DHT22;16266;50.866;4.398;2023-11-19T08:10:22;11.90;99.90
29237;DHT22;16266;50.866;4.398;2023-11-19T08:12:48;11.90;99.90
29237;DHT22;16266;50.866;4.398;2023-11-19T08:15:14;12.20;99.90
29237;DHT22;16266;50.866;4.398;2023-11-19T08:17:41;12.50;99.90
29237;DHT22;16266;50.866;4.398;2023-11-19T08:20:08;12.90;99.90
29237;DHT22;16266;50.866;4.398;2023-11-19T08:22:36;13.10;99.90
29237;DHT22;16266;50.866;4.398;2023-11-19T08:25:04;13.30;99.90
29237;DHT22;16266;50.866;4.398;2023-11-19T08:27:29;13.60;99.90
29237;DHT22;16266;50.866;4.398;2023-11-19T08:29:55;13.70;99.90
29237;DHT22;16266;50.866;4.398;2023-11-19T08:32:23;13.60;99.90
29237;DHT22;16266;50.866;4.398;2023-11-19T08:34:49;13.90;99.90
29237;DHT22;16266;50.866;4.398;2023-11-19T08:37:15;14.10;99.90
29237;DHT22;16266;50.866;4.398;2023-11-19T08:39:43;14.00;99.90
29237;DHT22;16266;50.866;4.398;2023-11-19T08:42:09;13.80;99.90
29237;DHT22;16266;50.866;4.398;2023-11-19T08:44:34;13.70;99.90
29237;DHT22;16266;50.866;4.398;2023-11-19T08:47:00;13.50;99.90
29237;DHT22;16266;50.866;4.398;2023-11-19T08:49:26;13.30;99.90
29237;DHT22;16266;50.866;4.398;2023-11-19T08:51:51;13.10;99.90
29237;DHT22;16266;50.866;4.398;2023-11-19T08:54:17;12.90;99.90
29237;DHT22;16266;50.866;4.398;2023-11-19T08:56:42;12.70;99.90
29237;DHT22;16266;50.866;4.398;2023-11-19T08:59:08;12.60;99.90
29237;DHT22;16266;50.866;4.398;2023-11-19T09:01:34;12.60;99.90
29237;DHT22;16266;50.866;4.398;2023-11-19T09:03:59;12.60;99.90
29237;DHT22;16266;50.866;4.398;2023-11-19T09:06:25;12.70;99.90
29237;DHT22;16266;50.866;4.398;2023-11-19T09:08:51;12.80;99.90
29237;DHT22;16266;50.866;4.398;2023-11-19T09:11:17;12.90;99.90
29237;DHT22;16266;50.866;4.398;2023-11-19T09:13:43;12.90;99.90
29237;DHT22;16266;50.866;4.398;2023-11-19T09:16:11;12.90;99.90
29237;DHT22;16266;50.866;4.398;2023-11-19T09:18:37;13.40;99.90
29237;DHT22;16266;50.866;4.398;2023-11-19T09:21:03;13.90;99.90
29237;DHT22;16266;50.866;4.398;2023-11-19T09:23:29;14.30;99.90
29237;DHT22;16266;50.866;4.398;2023-11-19T09:25:58;14.70;99.90
29237;DHT22;16266;50.866;4.398;2023-11-19T09:28:23;15.00;99.90
29237;DHT22;16266;50.866;4.398;2023-11-19T09:30:49;15.30;99.90
29237;DHT22;16266;50.866;4.398;2023-11-19T09:33:14;15.30;99.90
29237;DHT22;16266;50.866;4.398;2023-11-19T09:35:40;15.10;99.90
29237;DHT22;16266;50.866;4.398;2023-11-19T09:38:05;14.70;99.90
29237;DHT22;16266;50.866;4.398;2023-11-19T09:40:31;15.20;99.90
29237;DHT22;16266;50.866;4.398;2023-11-19T09:42:57;15.90;99.90
29237;DHT22;16266;50.866;4.398;2023-11-19T09:45:27;16.50;99.90
29237;DHT22;16266;50.866;4.398;2023-11-19T09:47:53;16.60;99.90
29237;DHT22;16266;50.866;4.398;2023-11-19T09:50:20;16.70;99.90
29237;DHT22;16266;50.866;4.398;2023-11-19T09:52:47;16.80;99.90
29237;DHT22;16266;50.866;4.398;2023-11-19T09:55:13;17.10;99.90
29237;DHT22;16266;50.866;4.398;2023-11-19T09:57:39;17.40;99.90
29237;DHT22;16266;50.866;4.398;2023-11-19T10:00:07;17.20;99.90
29237;DHT22;16266;50.866;4.398;2023-11-19T10:02:34;17.00;99.90
29237;DHT22;16266;50.866;4.398;2023-11-19T10:05:06;16.80;99.90
29237;DHT22;16266;50.866;4.398;2023-11-19T10:07:35;16.60;99.90
29237;DHT22;16266;50.866;4.398;2023-11-19T10:10:01;16.90;99.90
29237;DHT22;16266;50.866;4.398;2023-11-19T10:12:28;17.10;99.90
29237;DHT22;16266;50.866;4.398;2023-11-19T10:14:56;16.90;99.90
29237;DHT22;16266;50.866;4.398;2023-11-19T10:17:27;16.60;99.90
29237;DHT22;16266;50.866;4.398;2023-11-19T10:19:54;16.60;99.90
29237;DHT22;16266;50.866;4.398;2023-11-19T10:22:20;16.60;99.90
29237;DHT22;16266;50.866;4.398;2023-11-19T10:24:47;16.50;99.90
29237;DHT22;16266;50.866;4.398;2023-11-19T10:27:13;16.30;99.90
29237;DHT22;16266;50.866;4.398;2023-11-19T10:29:40;16.10;99.90
29237;DHT22;16266;50.866;4.398;2023-11-19T10:32:05;15.90;99.90
29237;DHT22;16266;50.866;4.398;2023-11-19T10:34:31;16.40;99.90
29237;DHT22;16266;50.866;4.398;2023-11-19T10:36:57;16.70;99.90
29237;DHT22;16266;50.866;4.398;2023-11-19T10:39:23;16.70;99.90
29237;DHT22;16266;50.866;4.398;2023-11-19T10:41:50;16.80;99.90
29237;DHT22;16266;50.866;4.398;2023-11-19T10:44:32;16.40;99.90
29237;DHT22;16266;50.866;4.398;2023-11-19T10:47:01;15.80;99.90
29237;DHT22;16266;50.866;4.398;2023-11-19T10:49:26;15.30;99.90
29237;DHT22;16266;50.866;4.398;2023-11-19T10:51:53;15.10;99.90
29237;DHT22;16266;50.866;4.398;2023-11-19T10:54:22;14.80;99.90
29237;DHT22;16266;50.866;4.398;2023-11-19T10:56:55;14.50;99.90
29237;DHT22;16266;50.866;4.398;2023-11-19T10:59:24;14.70;99.90
29237;DHT22;16266;50.866;4.398;2023-11-19T11:01:53;15.40;99.90
29237;DHT22;16266;50.866;4.398;2023-11-19T11:04:25;16.30;99.90
29237;DHT22;16266;50.866;4.398;2023-11-19T11:06:54;17.20;99.90
29237;DHT22;16266;50.866;4.398;2023-11-19T11:09:26;17.40;99.90
29237;DHT22;16266;50.866;4.398;2023-11-19T11:11:52;17.30;99.90
29237;DHT22;16266;50.866;4.398;2023-11-19T11:14:20;17.00;99.90
29237;DHT22;16266;50.866;4.398;2023-11-19T11:16:48;16.40;99.90
29237;DHT22;16266;50.866;4.398;2023-11-19T11:19:16;15.50;99.90
29237;DHT22;16266;50.866;4.398;2023-11-19T11:21:45;15.20;99.90
29237;DHT22;16266;50.866;4.398;2023-11-19T11:35:59;14.30;99.90
29237;DHT22;16266;50.866;4.398;2023-11-19T11:38:28;14.00;99.90
29237;DHT22;16266;50.866;4.398;2023-11-19T11:41:23;14.10;99.90
29237;DHT22;16266;50.866;4.398;2023-11-19T11:43:54;14.40;99.90
29237;DHT22;16266;50.866;4.398;2023-11-19T11:49:06;15.70;99.90
29237;DHT22;16266;50.866;4.398;2023-11-19T11:54:30;16.20;99.90
29237;DHT22;16266;50.866;4.398;2023-11-19T11:59:58;16.20;99.90
29237;DHT22;16266;50.866;4.398;2023-11-19T12:02:25;16.00;99.90
29237;DHT22;16266;50.866;4.398;2023-11-19T12:04:52;16.20;99.90
29237;DHT22;16266;50.866;4.398;2023-11-19T12:07:23;16.10;99.90
29237;DHT22;16266;50.866;4.398;2023-11-19T12:09:52;16.30;99.90
29237;DHT22;16266;50.866;4.398;2023-11-19T12:12:23;16.30;99.90
29237;DHT22;16266;50.866;4.398;2023-11-19T12:15:03;16.20;99.90
29237;DHT22;16266;50.866;4.398;2023-11-19T12:20:05;15.70;99.90
29237;DHT22;16266;50.866;4.398;2023-11-19T12:22:44;15.20;99.90
29237;DHT22;16266;50.866;4.398;2023-11-19T12:25:11;15.10;99.90
29237;DHT22;16266;50.866;4.398;2023-11-19T12:27:40;14.90;99.90
29237;DHT22;16266;50.866;4.398;2023-11-19T12:30:07;14.90;99.90
29237;DHT22;16266;50.866;4.398;2023-11-19T12:32:44;14.80;99.90
29237;DHT22;16266;50.866;4.398;2023-11-19T12:35:11;14.80;99.90
29237;DHT22;16266;50.866;4.398;2023-11-19T12:37:47;14.70;99.90
29237;DHT22;16266;50.866;4.398;2023-11-19T12:42:45;14.20;99.90
29237;DHT22;16266;50.866;4.398;2023-11-19T12:45:12;14.10;99.90
29237;DHT22;16266;50.866;4.398;2023-11-19T12:47:39;14.10;99.90
29237;DHT22;16266;50.866;4.398;2023-11-19T12:50:06;14.10;99.90
29237;DHT22;16266;50.866;4.398;2023-11-19T12:52:35;14.20;99.90
29237;DHT22;16266;50.866;4.398;2023-11-19T12:55:02;14.30;99.90
29237;DHT22;16266;50.866;4.398;2023-11-19T12:57:41;14.30;99.90
29237;DHT22;16266;50.866;4.398;2023-11-19T13:00:17;14.30;99.90
29237;DHT22;16266;50.866;4.398;2023-11-19T13:02:50;14.50;99.90
29237;DHT22;16266;50.866;4.398;2023-11-19T13:10:27;14.40;99.90
29237;DHT22;16266;50.866;4.398;2023-11-19T13:13:06;14.40;99.90
29237;DHT22;16266;50.866;4.398;2023-11-19T13:15:32;14.50;99.90
29237;DHT22;16266;50.866;4.398;2023-11-19T13:17:58;14.40;99.90
29237;DHT22;16266;50.866;4.398;2023-11-19T13:20:24;14.40;99.90
29237;DHT22;16266;50.866;4.398;2023-11-19T13:23:00;14.40;99.90
29237;DHT22;16266;50.866;4.398;2023-11-19T13:25:27;14.50;99.90
29237;DHT22;16266;50.866;4.398;2023-11-19T13:27:53;14.50;99.90
29237;DHT22;16266;50.866;4.398;2023-11-19T13:30:19;14.60;99.90
29237;DHT22;16266;50.866;4.398;2023-11-19T13:32:45;14.50;99.90
29237;DHT22;16266;50.866;4.398;2023-11-19T13:35:12;14.50;99.90
29237;DHT22;16266;50.866;4.398;2023-11-19T13:37:39;14.40;99.90
29237;DHT22;16266;50.866;4.398;2023-11-19T13:40:07;14.30;99.90
29237;DHT22;16266;50.866;4.398;2023-11-19T13:42:33;14.10;99.90
29237;DHT22;16266;50.866;4.398;2023-11-19T13:44:58;14.20;99.90
29237;DHT22;16266;50.866;4.398;2023-11-19T13:47:24;14.10;99.90
29237;DHT22;16266;50.866;4.398;2023-11-19T13:49:50;14.00;99.90
29237;DHT22;16266;50.866;4.398;2023-11-19T13:52:15;13.80;99.90
29237;DHT22;16266;50.866;4.398;2023-11-19T13:54:41;13.70;99.90
29237;DHT22;16266;50.866;4.398;2023-11-19T13:57:07;13.50;99.90
29237;DHT22;16266;50.866;4.398;2023-11-19T13:59:32;13.40;99.90
29237;DHT22;16266;50.866;4.398;2023-11-19T14:01:58;13.40;99.90
29237;DHT22;16266;50.866;4.398;2023-11-19T14:04:24;13.40;99.90
29237;DHT22;16266;50.866;4.398;2023-11-19T14:06:50;13.60;99.90
29237;DHT22;16266;50.866;4.398;2023-11-19T14:09:16;13.70;99.90
29237;DHT22;16266;50.866;4.398;2023-11-19T14:11:42;13.60;99.90
29237;DHT22;16266;50.866;4.398;2023-11-19T14:14:08;13.60;99.90
29237;DHT22;16266;50.866;4.398;2023-11-19T14:16:33;13.50;99.90
29237;DHT22;16266;50.866;4.398;2023-11-19T14:18:59;13.50;99.90
29237;DHT22;16266;50.866;4.398;2023-11-19T14:21:25;13.50;99.90
29237;DHT22;16266;50.866;4.398;2023-11-19T14:23:52;13.40;99.90
29237;DHT22;16266;50.866;4.398;2023-11-19T14:26:18;13.50;99.90
29237;DHT22;16266;50.866;4.398;2023-11-19T14:28:43;13.50;99.90
29237;DHT22;16266;50.866;4.398;2023-11-19T14:31:09;13.40;99.90
29237;DHT22;16266;50.866;4.398;2023-11-19T14:33:35;13.30;99.90
29237;DHT22;16266;50.866;4.398;2023-11-19T14:36:01;13.10;99.90
29237;DHT22;16266;50.866;4.398;2023-11-19T14:38:27;12.90;99.90
29237;DHT22;16266;50.866;4.398;2023-11-19T14:40:53;12.90;99.90
29237;DHT22;16266;50.866;4.398;2023-11-19T14:43:18;12.80;99.90
29237;DHT22;16266;50.866;4.398;2023-11-19T14:45:44;12.80;99.90
29237;DHT22;16266;50.866;4.398;2023-11-19T14:48:09;12.80;99.90
29237;DHT22;16266;50.866;4.398;2023-11-19T14:50:35;12.70;99.90
29237;DHT22;16266;50.866;4.398;2023-11-19T14:53:01;12.70;99.90
29237;DHT22;16266;50.866;4.398;2023-11-19T14:55:27;12.60;99.90
29237;DHT22;16266;50.866;4.398;2023-11-19T14:57:53;12.70;99.90
29237;DHT22;16266;50.866;4.398;2023-11-19T15:00:19;12.70;99.90
29237;DHT22;16266;50.866;4.398;2023-11-19T15:02:45;12.70;99.90
29237;DHT22;16266;50.866;4.398;2023-11-19T15:05:10;12.70;99.90
29237;DHT22;16266;50.866;4.398;2023-11-19T15:07:39;12.80;99.90
29237;DHT22;16266;50.866;4.398;2023-11-19T15:10:08;12.70;99.90
29237;DHT22;16266;50.866;4.398;2023-11-19T15:12:35;12.70;99.90
29237;DHT22;16266;50.866;4.398;2023-11-19T15:15:08;12.60;99.90
29237;DHT22;16266;50.866;4.398;2023-11-19T15:17:35;12.60;99.90
29237;DHT22;16266;50.866;4.398;2023-11-19T15:20:02;12.50;99.90
29237;DHT22;16266;50.866;4.398;2023-11-19T15:22:28;12.50;99.90
29237;DHT22;16266;50.866;4.398;2023-11-19T15:24:53;12.60;99.90
29237;DHT22;16266;50.866;4.398;2023-11-19T15:27:19;12.60;99.90
29237;DHT22;16266;50.866;4.398;2023-11-19T15:29:45;12.60;99.90
29237;DHT22;16266;50.866;4.398;2023-11-19T15:32:10;12.60;99.90
29237;DHT22;16266;50.866;4.398;2023-11-19T15:34:36;12.50;99.90
29237;DHT22;16266;50.866;4.398;2023-11-19T15:37:03;12.50;99.90
29237;DHT22;16266;50.866;4.398;2023-11-19T15:39:29;12.50;99.90
29237;DHT22;16266;50.866;4.398;2023-11-19T15:41:55;12.40;99.90
29237;DHT22;16266;50.866;4.398;2023-11-19T15:44:23;12.50;99.90
29237;DHT22;16266;50.866;4.398;2023-11-19T15:46:49;12.50;99.90
29237;DHT22;16266;50.866;4.398;2023-11-19T15:49:15;12.60;99.90
29237;DHT22;16266;50.866;4.398;2023-11-19T15:51:41;12.60;99.90
29237;DHT22;16266;50.866;4.398;2023-11-19T15:54:07;12.60;99.90
29237;DHT22;16266;50.866;4.398;2023-11-19T15:56:34;12.60;99.90
29237;DHT22;16266;50.866;4.398;2023-11-19T15:58:59;12.70;99.90